TimeCDT,TemperatureF,Dew PointF,Humidity,Sea Level PressureIn,VisibilityMPH,Wind Direction,Wind SpeedMPH,Gust SpeedMPH,PrecipitationIn,Events,Conditions,WindDirDegrees,DateUTC
12:52 AM,64.9,63.0,93,30.07,10.0,ESE,5.8,-,N/A,,Clear,120,2013-08-11 05:52:00
1:52 AM,64.9,62.1,90,30.05,10.0,SSE,5.8,-,N/A,,Clear,150,2013-08-11 06:52:00
2:52 AM,68.0,61.0,78,30.06,10.0,South,10.4,-,N/A,,Clear,190,2013-08-11 07:52:00
3:52 AM,69.1,61.0,75,30.04,10.0,SSW,11.5,-,N/A,,Clear,200,2013-08-11 08:52:00
4:52 AM,68.0,60.1,76,30.06,10.0,Variable,5.8,-,N/A,,Clear,0,2013-08-11 09:52:00
5:52 AM,66.0,60.1,81,30.05,10.0,South,6.9,-,N/A,,Clear,170,2013-08-11 10:52:00
6:52 AM,63.0,60.1,90,30.06,10.0,SE,3.5,-,N/A,,Clear,130,2013-08-11 11:52:00
7:52 AM,64.9,61.0,87,30.04,10.0,SSE,6.9,-,N/A,,Clear,160,2013-08-11 12:52:00
8:52 AM,70.0,64.0,81,30.04,10.0,SSW,6.9,-,N/A,,Clear,200,2013-08-11 13:52:00
9:52 AM,75.0,66.0,73,30.03,10.0,South,6.9,-,N/A,,Clear,190,2013-08-11 14:52:00
10:52 AM,78.1,66.9,68,30.03,10.0,SSW,9.2,-,N/A,,Clear,210,2013-08-11 15:52:00
11:52 AM,80.1,68.0,67,30.02,10.0,SW,8.1,-,N/A,,Clear,230,2013-08-11 16:52:00
12:52 PM,81.0,69.1,67,30.01,10.0,SW,10.4,-,N/A,,Mostly Cloudy,230,2013-08-11 17:52:00
1:52 PM,79.0,68.0,69,30.01,10.0,WSW,10.4,-,N/A,,Mostly Cloudy,240,2013-08-11 18:52:00
2:52 PM,80.1,69.1,69,30.01,10.0,WSW,5.8,-,N/A,,Mostly Cloudy,250,2013-08-11 19:52:00
3:52 PM,80.1,69.1,69,30.01,10.0,WSW,6.9,-,N/A,,Mostly Cloudy,240,2013-08-11 20:52:00
4:52 PM,81.0,69.1,67,30.00,10.0,SW,10.4,-,N/A,,Mostly Cloudy,230,2013-08-11 21:52:00
5:52 PM,82.9,69.1,63,29.97,10.0,West,5.8,-,N/A,,Clear,260,2013-08-11 22:52:00
6:52 PM,81.0,69.1,67,29.98,10.0,NW,5.8,-,N/A,,Clear,310,2013-08-11 23:52:00
7:52 PM,79.0,69.1,72,29.98,10.0,NNE,9.2,-,N/A,,Scattered Clouds,20,2013-08-12 00:52:00
8:52 PM,77.0,68.0,74,30.00,10.0,NNE,8.1,-,N/A,Thunderstorm,Mostly Cloudy,20,2013-08-12 01:52:00
9:10 PM,75.2,68.0,78,30.04,10.0,NE,6.9,-,N/A,,Partly Cloudy,40,2013-08-12 02:10:00
9:50 PM,73.4,64.4,73,30.05,10.0,South,8.1,-,N/A,Thunderstorm,Overcast,180,2013-08-12 02:50:00
9:52 PM,73.0,64.0,73,30.03,10.0,South,8.1,-,N/A,Thunderstorm,Overcast,170,2013-08-12 02:52:00
10:10 PM,71.6,62.6,73,30.05,10.0,SSW,6.9,-,N/A,,Overcast,200,2013-08-12 03:10:00
10:24 PM,69.8,62.6,78,30.05,10.0,South,5.8,-,N/A,,Mostly Cloudy,190,2013-08-12 03:24:00
10:52 PM,68.0,63.0,84,30.03,10.0,SW,4.6,-,N/A,,Clear,220,2013-08-12 03:52:00
11:52 PM,66.9,63.0,87,30.00,10.0,Calm,Calm,-,N/A,,Clear,0,2013-08-12 04:52:00